KEFK

Northeast Kingdom International Airport

Newport, Vermont, USA
METAR KEFK 150035Z AUTO 17004KT 10SM CLR 22/19 A2984 RMK AO2 T02170185
Observed Flight Rules
Aug-15 @ 00:35 UTC (30 minutes ago) Visual Flight Rules
Wind Visibility Clouds
170° at 4 knots 10 miles
  • Clear skies
Temperatures Readings
Current 22°C / 72°F
Dewpoint 19°C / 66°F
Humidity 83%
Altimeter 29.84" Hg
Pressure 1010 hPa
Elevation 284
METAR KEFK 150035Z AUTO 17004KT 10SM CLR 22/19 A2984 RMK AO2 T02170185
Observed Flight Rules
Aug-15 @ 00:35 UTC
(30 minutes ago)
VFR
Wind Visibility
170° at 4 knots 10 miles
Clouds
  • Clear skies
Temperature Dewpoint
22°C / 72°F 19°C / 66°F
Humidity Altimeter Pressure
83% 29.84" Hg 1010 hPa